createdAt,value
2022-11-12T00:00:15.614Z,21.13
2022-11-12T00:05:18.604Z,23.03
2022-11-12T00:10:21.582Z,21.67
2022-11-12T00:15:26.214Z,21.77
2022-11-12T00:20:28.985Z,21.30
2022-11-12T00:25:31.980Z,22.67
2022-11-12T00:30:38.548Z,22.93
2022-11-12T00:35:41.305Z,22.70
2022-11-12T00:40:44.066Z,23.33
2022-11-12T00:45:48.382Z,21.80
2022-11-12T00:50:51.166Z,21.50
2022-11-12T00:55:53.994Z,21.10
2022-11-12T01:00:58.325Z,21.40
2022-11-12T01:06:03.970Z,20.53
2022-11-12T01:11:09.084Z,18.77
2022-11-12T01:16:16.170Z,19.13
2022-11-12T01:21:18.905Z,18.20
2022-11-12T01:26:23.324Z,18.20
2022-11-12T01:31:29.968Z,17.80
2022-11-12T01:36:34.578Z,17.27
2022-11-12T01:41:39.794Z,17.53
2022-11-12T01:46:59.624Z,16.00
2022-11-12T01:52:13.302Z,17.23
2022-11-12T01:57:18.299Z,17.13
2022-11-12T02:02:23.352Z,16.03
2022-11-12T02:07:26.691Z,16.47
2022-11-12T02:12:47.781Z,16.43
2022-11-12T02:17:52.198Z,15.23
2022-11-12T02:22:56.324Z,15.93
2022-11-12T02:28:00.906Z,15.50
2022-11-12T02:33:03.889Z,16.17
2022-11-12T02:38:09.114Z,15.80
2022-11-12T02:43:12.151Z,15.80
2022-11-12T02:48:24.663Z,15.37
2022-11-12T02:53:32.402Z,15.73
2022-11-12T02:58:35.393Z,14.70
2022-11-12T03:03:38.597Z,15.77
2022-11-12T03:08:42.879Z,15.33
2022-11-12T03:13:45.853Z,14.90
2022-11-12T03:18:48.893Z,14.97
2022-11-12T03:23:53.204Z,15.77
2022-11-12T03:28:56.405Z,14.67
2022-11-12T03:33:59.302Z,14.27
2022-11-12T03:39:03.616Z,14.80
2022-11-12T03:44:06.745Z,14.70
2022-11-12T03:49:09.513Z,14.30
2022-11-12T03:54:13.752Z,13.77
2022-11-12T03:59:16.500Z,14.20
2022-11-12T04:04:19.289Z,13.43
2022-11-12T04:09:23.400Z,13.90
2022-11-12T04:14:26.169Z,13.40
2022-11-12T04:19:46.624Z,13.27
2022-11-12T04:25:08.470Z,12.60
2022-11-12T04:30:19.013Z,13.03
2022-11-12T04:35:22.898Z,13.03
2022-11-12T04:40:46.189Z,13.20
2022-11-12T04:45:51.512Z,12.83
2022-11-12T04:50:56.506Z,13.60
2022-11-12T04:56:00.662Z,12.50
2022-11-12T05:01:03.798Z,13.90
2022-11-12T05:06:28.855Z,13.77
2022-11-12T05:11:32.899Z,14.73
2022-11-12T05:16:35.892Z,14.83
2022-11-12T05:21:55.942Z,14.27
2022-11-12T05:27:00.072Z,15.63
2022-11-12T05:32:03.134Z,16.90
2022-11-12T05:37:08.139Z,17.57
2022-11-12T05:42:13.687Z,17.63
2022-11-12T05:47:17.578Z,19.30
2022-11-12T05:52:20.321Z,18.63
2022-11-12T05:57:24.441Z,17.93
2022-11-12T06:02:27.301Z,18.20
2022-11-12T06:12:36.822Z,16.60
2022-11-12T06:17:45.518Z,17.00
2022-11-12T06:23:02.650Z,15.60
2022-11-12T06:28:07.041Z,15.90
2022-11-12T06:33:09.973Z,15.67
2022-11-12T06:38:12.736Z,15.90
2022-11-12T06:43:16.916Z,14.50
2022-11-12T06:48:19.693Z,14.97
2022-11-12T06:53:22.469Z,13.63
2022-11-12T06:58:26.960Z,14.27
2022-11-12T07:03:29.833Z,15.07
2022-11-12T07:08:32.758Z,13.90
2022-11-12T07:13:37.533Z,14.03
2022-11-12T07:18:40.691Z,13.60
2022-11-12T07:23:43.506Z,13.47
2022-11-12T07:28:48.326Z,12.93
2022-11-12T07:33:51.718Z,11.63
2022-11-12T07:38:55.489Z,12.50
2022-11-12T07:43:59.558Z,12.03
2022-11-12T07:49:02.640Z,11.00
2022-11-12T07:54:05.555Z,10.77
2022-11-12T07:59:09.686Z,11.00
2022-11-12T08:04:13.980Z,9.63
2022-11-12T08:09:16.807Z,9.77
2022-11-12T08:14:20.893Z,7.73
2022-11-12T08:19:23.647Z,7.80
2022-11-12T08:24:26.390Z,7.27
2022-11-12T08:29:30.444Z,7.37
2022-11-12T08:34:33.192Z,7.50
2022-11-12T08:39:35.913Z,6.27
2022-11-12T08:44:40.523Z,7.07
2022-11-12T08:49:47.808Z,6.50
2022-11-12T08:54:50.985Z,5.78
2022-11-12T08:59:55.095Z,5.50
2022-11-12T09:04:57.795Z,5.40
2022-11-12T09:10:01.081Z,5.28
2022-11-12T09:15:31.166Z,5.70
2022-11-12T09:20:29.671Z,5.45
2022-11-12T09:25:32.984Z,5.53
2022-11-12T09:30:37.520Z,4.70
2022-11-12T09:35:40.300Z,4.80
2022-11-12T09:40:55.089Z,5.07
2022-11-12T09:46:26.529Z,5.32
2022-11-12T09:51:34.460Z,4.80
2022-11-12T09:56:37.201Z,5.10
2022-11-12T10:01:48.258Z,5.07
2022-11-12T10:06:58.394Z,5.75
2022-11-12T10:12:27.076Z,4.63
2022-11-12T10:17:38.123Z,5.30
2022-11-12T10:22:56.620Z,4.95
2022-11-12T10:27:59.793Z,4.80
2022-11-12T10:33:04.523Z,4.80
2022-11-12T10:38:14.696Z,4.55
2022-11-12T10:43:26.046Z,4.38
2022-11-12T10:48:33.899Z,4.88
2022-11-12T10:53:39.328Z,4.68
2022-11-12T10:58:42.088Z,5.45
2022-11-12T11:03:51.367Z,5.13
2022-11-12T11:08:55.643Z,4.75
2022-11-12T11:14:19.536Z,4.88
2022-11-12T11:19:28.312Z,5.65
2022-11-12T11:24:40.688Z,4.97
2022-11-12T11:29:56.895Z,5.53
2022-11-12T11:35:14.907Z,4.75
2022-11-12T11:40:27.547Z,5.10
2022-11-12T11:45:38.259Z,4.55
2022-11-12T11:50:47.387Z,4.35
2022-11-12T11:55:55.496Z,3.67
2022-11-12T12:01:07.304Z,3.45
2022-11-12T12:06:20.604Z,3.42
2022-11-12T12:11:29.153Z,3.35
2022-11-12T12:16:42.827Z,3.80
2022-11-12T12:21:50.300Z,3.90
2022-11-12T12:26:56.052Z,3.80
2022-11-12T12:32:04.371Z,3.40
2022-11-12T12:37:15.922Z,3.58
2022-11-12T12:42:25.100Z,4.25
2022-11-12T12:47:30.435Z,4.75
2022-11-12T12:53:00.238Z,3.83
2022-11-12T12:58:03.057Z,3.67
2022-11-12T13:03:06.563Z,3.90
2022-11-12T13:08:14.206Z,3.53
2022-11-12T13:13:41.014Z,3.42
2022-11-12T13:19:01.910Z,3.30
2022-11-12T13:24:11.832Z,3.58
2022-11-12T13:29:40.318Z,3.60
2022-11-12T13:34:43.114Z,3.80
2022-11-12T13:39:47.680Z,3.33
2022-11-12T13:44:55.961Z,3.80
2022-11-12T13:50:02.351Z,3.35
2022-11-12T13:55:11.178Z,3.58
2022-11-12T14:00:28.865Z,3.80
2022-11-12T14:05:33.940Z,3.80
2022-11-12T14:10:51.210Z,3.28
2022-11-12T14:16:28.756Z,3.78
2022-11-12T14:21:31.568Z,3.78
2022-11-12T14:26:38.141Z,3.67
2022-11-12T14:31:40.905Z,3.75
2022-11-12T14:36:43.990Z,3.90
2022-11-12T14:41:51.632Z,4.00
2022-11-12T14:46:57.213Z,4.07
2022-11-12T14:52:07.403Z,4.10
2022-11-12T14:57:19.786Z,3.90
2022-11-12T15:02:42.343Z,7.03
2022-11-12T15:07:55.362Z,9.00
2022-11-12T15:13:06.366Z,12.43
2022-11-12T15:18:17.538Z,8.35
2022-11-12T15:23:20.906Z,5.85
2022-11-12T15:28:33.076Z,7.28
2022-11-12T15:33:36.096Z,7.30
2022-11-12T15:38:38.917Z,6.70
2022-11-12T15:43:43.419Z,6.28
2022-11-12T15:48:49.196Z,11.48
2022-11-12T15:53:54.219Z,28.63
2022-11-12T15:58:58.760Z,19.77
2022-11-12T16:04:01.474Z,15.47
2022-11-12T16:09:04.395Z,16.33
2022-11-12T16:14:17.089Z,15.10
2022-11-12T16:19:24.205Z,10.53
2022-11-12T16:24:26.956Z,12.03
2022-11-12T16:29:31.046Z,10.93
2022-11-12T16:34:36.667Z,9.23
2022-11-12T16:39:39.425Z,9.80
2022-11-12T16:44:43.489Z,9.37
2022-11-12T16:49:46.420Z,12.50
2022-11-12T16:54:49.440Z,12.50
2022-11-12T16:59:53.674Z,19.00
2022-11-12T17:04:56.389Z,17.80
2022-11-12T17:09:59.160Z,27.57
2022-11-12T17:15:05.123Z,31.37
2022-11-12T17:20:09.264Z,19.63
2022-11-12T17:25:12.071Z,22.00
2022-11-12T17:30:19.407Z,21.10
2022-11-12T17:35:22.163Z,22.57
2022-11-12T17:40:24.892Z,18.37
2022-11-12T17:45:28.990Z,18.90
2022-11-12T17:50:31.715Z,18.30
2022-11-12T17:55:34.501Z,19.77
2022-11-12T18:00:39.775Z,20.27
2022-11-12T18:05:42.517Z,17.30
2022-11-12T18:10:45.540Z,16.00
2022-11-12T18:15:49.750Z,16.50
2022-11-12T18:20:52.555Z,18.10
2022-11-12T18:25:55.254Z,20.50
2022-11-12T18:31:01.675Z,20.37
2022-11-12T18:36:06.562Z,22.07
2022-11-12T18:41:10.811Z,19.40
2022-11-12T18:46:14.904Z,20.03
2022-11-12T18:51:19.889Z,23.67
2022-11-12T18:56:23.150Z,22.77
2022-11-12T19:01:27.348Z,27.60
2022-11-12T19:06:30.174Z,21.23
2022-11-12T19:11:32.935Z,21.97
2022-11-12T19:17:07.153Z,20.63
2022-11-12T19:22:10.234Z,18.50
2022-11-12T19:27:13.152Z,18.50
2022-11-12T19:32:17.504Z,18.80
2022-11-12T19:37:32.952Z,19.77
2022-11-12T19:42:36.511Z,21.97
2022-11-12T19:47:40.599Z,22.10
2022-11-12T19:52:43.404Z,23.20
2022-11-12T19:57:46.234Z,21.63
2022-11-12T20:02:50.397Z,23.20
2022-11-12T20:07:53.659Z,24.20
2022-11-12T20:12:56.775Z,24.40
2022-11-12T20:18:03.048Z,25.77
2022-11-12T20:23:05.875Z,27.07
2022-11-12T20:28:08.839Z,23.33
2022-11-12T20:33:13.954Z,24.63
2022-11-12T20:38:17.079Z,24.57
2022-11-12T20:43:19.866Z,26.87
2022-11-12T20:48:24.448Z,23.97
2022-11-12T20:53:27.531Z,26.53
2022-11-12T20:58:30.806Z,29.20
2022-11-12T21:03:36.950Z,28.27
2022-11-12T21:08:40.384Z,25.40
2022-11-12T21:13:43.504Z,25.97
2022-11-12T21:18:47.581Z,21.20
2022-11-12T21:23:51.246Z,20.70
2022-11-12T21:28:55.670Z,22.70
2022-11-12T21:34:03.165Z,21.97
2022-11-12T21:39:06.579Z,22.77
2022-11-12T21:44:09.408Z,22.77
2022-11-12T21:49:13.550Z,20.97
2022-11-12T21:54:16.280Z,22.83
2022-11-12T21:59:19.052Z,22.90
2022-11-12T22:04:24.039Z,22.00
2022-11-12T22:09:26.825Z,22.03
2022-11-12T22:14:29.628Z,21.70
2022-11-12T22:19:34.351Z,22.60
2022-11-12T22:24:37.088Z,21.40
2022-11-12T22:29:39.908Z,24.13
2022-11-12T22:34:49.237Z,20.37
2022-11-12T22:39:52.283Z,19.60
2022-11-12T22:44:55.047Z,19.07
2022-11-12T22:49:59.087Z,18.63
2022-11-12T22:55:01.840Z,19.27
2022-11-12T23:00:09.456Z,18.00
2022-11-12T23:05:13.559Z,18.27
2022-11-12T23:10:16.378Z,16.53
2022-11-12T23:15:19.120Z,17.90
2022-11-12T23:20:23.270Z,17.37
2022-11-12T23:25:26.062Z,16.17
2022-11-12T23:30:28.867Z,17.67
2022-11-12T23:35:33.005Z,16.57
2022-11-12T23:40:35.790Z,16.47
2022-11-12T23:45:38.752Z,16.80
2022-11-12T23:50:42.962Z,15.27
2022-11-12T23:55:45.939Z,15.40
